createdAt,value
2023-04-03T00:01:32.379Z,96800.81
2023-04-03T00:04:03.277Z,96800.37
2023-04-03T00:06:32.100Z,96798.25
2023-04-03T00:09:00.584Z,96799.89
2023-04-03T00:11:29.029Z,96796.73
2023-04-03T00:13:57.250Z,96798.08
2023-04-03T00:16:25.199Z,96795.95
2023-04-03T00:18:53.147Z,96790.38
2023-04-03T00:21:21.146Z,96790.94
2023-04-03T00:23:49.221Z,96790.45
2023-04-03T00:26:17.251Z,96794.25
2023-04-03T00:28:45.465Z,96794.81
2023-04-03T00:31:17.295Z,96791.77
2023-04-03T00:33:45.412Z,96791.06
2023-04-03T00:36:14.141Z,96793.81
2023-04-03T00:38:42.642Z,96790.92
2023-04-03T00:41:10.776Z,96793.34
2023-04-03T00:43:38.885Z,96791.55
2023-04-03T00:46:06.984Z,96791.08
2023-04-03T00:48:43.870Z,96798.66
2023-04-03T00:51:23.409Z,96798.66
2023-04-03T00:54:11.616Z,96797.95
2023-04-03T00:56:59.177Z,96793.69
2023-04-03T00:59:31.582Z,96798.03
2023-04-03T01:02:00.898Z,96797.48
2023-04-03T01:04:33.931Z,96794.80
2023-04-03T01:07:07.260Z,96795.58
2023-04-03T01:09:36.517Z,96791.82
2023-04-03T01:12:25.244Z,96790.78
2023-04-03T01:14:57.441Z,96791.90
2023-04-03T01:17:45.390Z,96791.90
2023-04-03T01:20:37.408Z,96794.80
2023-04-03T01:23:25.250Z,96799.93
2023-04-03T01:25:57.050Z,96797.03
2023-04-03T01:28:33.030Z,96794.51
2023-04-03T01:31:24.989Z,96803.42
2023-04-03T01:33:53.858Z,96797.27
2023-04-03T01:36:29.954Z,96806.87
2023-04-03T01:39:00.362Z,96796.95
2023-04-03T01:41:29.518Z,96796.41
2023-04-03T01:43:59.210Z,96803.88
2023-04-03T01:46:27.328Z,96798.52
2023-04-03T01:48:55.256Z,96806.33
2023-04-03T01:51:23.537Z,96806.55
2023-04-03T01:53:52.154Z,96807.66
2023-04-03T01:56:20.824Z,96803.42
2023-04-03T01:58:49.079Z,96802.09
2023-04-03T02:01:18.139Z,96806.10
2023-04-03T02:03:46.015Z,96806.10
2023-04-03T02:06:13.972Z,96810.89
2023-04-03T02:08:42.729Z,96811.12
2023-04-03T02:11:13.832Z,96811.67
2023-04-03T02:13:41.950Z,96820.16
2023-04-03T02:16:11.672Z,96813.47
2023-04-03T02:18:40.613Z,96812.94
2023-04-03T02:21:09.500Z,96818.74
2023-04-03T02:23:37.565Z,96814.17
2023-04-03T02:26:09.831Z,96818.74
2023-04-03T02:28:37.963Z,96807.81
2023-04-03T02:31:09.679Z,96817.41
2023-04-03T02:33:41.378Z,96813.95
2023-04-03T02:36:10.586Z,96814.50
2023-04-03T02:38:39.671Z,96813.47
2023-04-03T02:41:10.818Z,96809.23
2023-04-03T02:43:39.749Z,96811.98
2023-04-03T02:46:08.888Z,96810.75
2023-04-03T02:48:38.236Z,96812.64
2023-04-03T02:51:06.339Z,96816.33
2023-04-03T02:53:34.245Z,96819.78
2023-04-03T02:56:04.029Z,96821.45
2023-04-03T02:58:31.994Z,96820.11
2023-04-03T03:01:01.006Z,96824.43
2023-04-03T03:03:29.233Z,96826.17
2023-04-03T03:06:13.940Z,96828.63
2023-04-03T03:08:42.968Z,96829.48
2023-04-03T03:11:11.510Z,96831.70
2023-04-03T03:13:39.948Z,96827.98
2023-04-03T03:16:08.873Z,96829.66
2023-04-03T03:18:37.581Z,96828.06
2023-04-03T03:21:05.776Z,96831.30
2023-04-03T03:23:34.344Z,96830.84
2023-04-03T03:26:06.368Z,96828.24
2023-04-03T03:28:36.851Z,96837.94
2023-04-03T03:31:05.994Z,96836.59
2023-04-03T03:33:34.438Z,96833.11
2023-04-03T03:36:02.350Z,96833.11
2023-04-03T03:38:30.585Z,96836.83
2023-04-03T03:41:00.535Z,96842.95
2023-04-03T03:43:28.639Z,96837.61
2023-04-03T03:45:56.405Z,96830.92
2023-04-03T03:48:24.874Z,96833.37
2023-04-03T03:50:53.031Z,96831.25
2023-04-03T03:53:22.783Z,96833.37
2023-04-03T03:55:52.036Z,96837.13
2023-04-03T03:58:21.402Z,96835.26
2023-04-03T04:00:50.134Z,96839.58
2023-04-03T04:03:18.892Z,96836.89
2023-04-03T04:05:48.587Z,96845.15
2023-04-03T04:08:16.928Z,96835.78
2023-04-03T04:10:45.697Z,96841.84
2023-04-03T04:13:14.979Z,96839.95
2023-04-03T04:15:44.653Z,96842.55
2023-04-03T04:18:12.662Z,96846.27
2023-04-03T04:20:42.706Z,96849.95
2023-04-03T04:23:11.026Z,96845.94
2023-04-03T04:25:39.457Z,96848.84
2023-04-03T04:28:07.357Z,96844.38
2023-04-03T04:30:35.238Z,96850.18
2023-04-03T04:33:04.438Z,96850.51
2023-04-03T04:35:35.080Z,96853.48
2023-04-03T04:38:03.732Z,96851.14
2023-04-03T04:40:31.556Z,96857.20
2023-04-03T04:43:00.312Z,96856.09
2023-04-03T04:45:28.357Z,96857.58
2023-04-03T04:47:57.621Z,96859.84
2023-04-03T04:50:25.792Z,96856.31
2023-04-03T04:52:54.375Z,96860.26
2023-04-03T04:55:22.629Z,96856.39
2023-04-03T04:57:51.351Z,96860.78
2023-04-03T05:00:20.063Z,96867.08
2023-04-03T05:02:48.250Z,96861.31
2023-04-03T05:05:16.290Z,96862.34
2023-04-03T05:07:44.251Z,96870.30
2023-04-03T05:10:12.192Z,96865.40
2023-04-03T05:12:41.302Z,96868.63
2023-04-03T05:15:10.329Z,96863.50
2023-04-03T05:17:38.907Z,96862.88
2023-04-03T05:20:09.240Z,96864.21
2023-04-03T05:22:38.324Z,96857.44
2023-04-03T05:25:08.664Z,96862.23
2023-04-03T05:27:36.840Z,96859.78
2023-04-03T05:30:06.036Z,96865.92
2023-04-03T05:32:34.138Z,96864.36
2023-04-03T05:35:07.906Z,96859.23
2023-04-03T05:37:37.007Z,96865.62
2023-04-03T05:40:07.504Z,96864.20
2023-04-03T05:42:36.242Z,96867.25
2023-04-03T05:45:05.836Z,96868.03
2023-04-03T05:47:33.752Z,96873.06
2023-04-03T05:50:02.118Z,96873.88
2023-04-03T05:52:37.147Z,96871.42
2023-04-03T05:55:06.238Z,96872.20
2023-04-03T05:57:35.514Z,96882.61
2023-04-03T06:00:07.320Z,96876.22
2023-04-03T06:02:37.191Z,96877.48
2023-04-03T06:05:08.448Z,96881.77
2023-04-03T06:07:36.978Z,96875.41
2023-04-03T06:10:07.601Z,96878.34
2023-04-03T06:12:35.708Z,96878.41
2023-04-03T06:15:04.354Z,96884.95
2023-04-03T06:17:32.512Z,96883.38
2023-04-03T06:20:00.598Z,96878.36
2023-04-03T06:22:30.456Z,96883.23
2023-04-03T06:24:58.680Z,96884.97
2023-04-03T06:27:26.627Z,96887.49
2023-04-03T06:29:55.237Z,96890.80
2023-04-03T06:32:23.101Z,96893.62
2023-04-03T06:34:51.297Z,96894.95
2023-04-03T06:37:22.901Z,96897.63
2023-04-03T06:39:50.722Z,96895.84
2023-04-03T06:42:19.027Z,96897.41
2023-04-03T06:44:48.879Z,96894.80
2023-04-03T06:47:17.780Z,96900.30
2023-04-03T06:49:46.130Z,96897.56
2023-04-03T06:52:13.910Z,96900.16
2023-04-03T06:54:41.993Z,96906.45
2023-04-03T06:57:09.912Z,96901.33
2023-04-03T06:59:38.318Z,96900.80
2023-04-03T07:02:07.097Z,96902.59
2023-04-03T07:04:35.308Z,96910.17
2023-04-03T07:07:03.326Z,96915.82
2023-04-03T07:09:31.392Z,96918.42
2023-04-03T07:11:59.565Z,96918.81
2023-04-03T07:14:27.822Z,96924.54
2023-04-03T07:16:55.727Z,96919.27
2023-04-03T07:19:26.969Z,96925.73
2023-04-03T07:22:04.302Z,96929.97
2023-04-03T07:24:34.244Z,96934.47
2023-04-03T07:27:02.990Z,96935.26
2023-04-03T07:29:31.186Z,96939.66
2023-04-03T07:32:01.068Z,96941.70
2023-04-03T07:34:29.700Z,96945.64
2023-04-03T07:36:58.381Z,96949.81
2023-04-03T07:39:30.488Z,96938.06
2023-04-03T07:44:53.155Z,96947.11
2023-04-03T07:47:26.744Z,96942.61
2023-04-03T07:50:02.268Z,96941.68
2023-04-03T07:52:32.002Z,96950.31
2023-04-03T07:55:01.308Z,96949.50
2023-04-03T07:57:36.138Z,96950.91
2023-04-03T08:04:37.184Z,96969.73
2023-04-03T08:07:11.868Z,96968.88
2023-04-03T08:09:46.925Z,96975.72
2023-04-03T08:12:52.374Z,96983.91
2023-04-03T08:15:23.704Z,96984.28
2023-04-03T08:17:52.410Z,96989.56
2023-04-03T08:20:20.820Z,96992.14
2023-04-03T08:22:48.566Z,96996.23
2023-04-03T08:25:17.985Z,97000.31
2023-04-03T08:27:46.109Z,97002.28
2023-04-03T08:30:14.759Z,97000.14
2023-04-03T08:32:43.665Z,97005.78
2023-04-03T08:35:12.252Z,97004.65
2023-04-03T08:37:40.862Z,97002.70
2023-04-03T08:40:16.643Z,97006.69
2023-04-03T08:43:08.333Z,97007.33
2023-04-03T08:45:56.808Z,97008.74
2023-04-03T08:48:36.353Z,97012.39
2023-04-03T08:51:17.972Z,97012.48
2023-04-03T08:53:51.590Z,97007.98
2023-04-03T08:56:19.980Z,97012.27
2023-04-03T08:58:56.933Z,97010.50
2023-04-03T09:01:33.100Z,97011.97
2023-04-03T09:04:03.280Z,97016.56
2023-04-03T09:06:33.960Z,97012.97
2023-04-03T09:09:41.689Z,97017.47
2023-04-03T09:12:30.591Z,97016.57
2023-04-03T09:15:13.204Z,97021.29
2023-04-03T09:18:18.552Z,97023.28
2023-04-03T09:21:27.200Z,97025.28
2023-04-03T09:24:02.355Z,97019.69
2023-04-03T09:26:33.823Z,97028.40
2023-04-03T09:29:10.611Z,97026.36
2023-04-03T09:31:43.791Z,97028.05
2023-04-03T09:34:26.763Z,97029.30
2023-04-03T09:37:07.614Z,97033.76
2023-04-03T09:39:56.449Z,97036.58
2023-04-03T09:42:27.043Z,97034.33
2023-04-03T09:45:12.716Z,97035.63
2023-04-03T09:47:42.380Z,97039.57
2023-04-03T09:50:20.216Z,97037.70
2023-04-03T09:52:53.075Z,97037.39
2023-04-03T09:55:26.172Z,97037.77
2023-04-03T09:57:58.085Z,97038.80
2023-04-03T10:00:39.107Z,97041.86
2023-04-03T10:03:34.645Z,97045.45
2023-04-03T10:06:04.476Z,97044.92
2023-04-03T10:08:36.085Z,97046.44
2023-04-03T10:11:14.742Z,97036.28
2023-04-03T10:14:01.636Z,97040.32
2023-04-03T10:16:39.917Z,97038.66
2023-04-03T10:19:28.976Z,97033.95
2023-04-03T10:22:15.075Z,97039.10
2023-04-03T10:24:48.152Z,97029.80
2023-04-03T10:27:27.397Z,97024.58
2023-04-03T10:30:18.833Z,97017.20
2023-04-03T10:33:20.383Z,97024.45
2023-04-03T10:36:15.671Z,97023.48
2023-04-03T10:39:13.425Z,97022.20
2023-04-03T10:42:17.936Z,97017.90
2023-04-03T10:44:54.561Z,97021.52
2023-04-03T10:48:03.824Z,97025.98
2023-04-03T10:51:03.635Z,97023.70
2023-04-03T10:53:42.736Z,97018.83
2023-04-03T10:56:33.522Z,97014.45
2023-04-03T10:59:27.563Z,97017.41
2023-04-03T11:02:03.683Z,97011.80
2023-04-03T11:04:36.430Z,97012.79
2023-04-03T11:07:23.828Z,97005.59
2023-04-03T11:09:56.295Z,97004.49
2023-04-03T11:12:50.202Z,97015.63
2023-04-03T11:15:21.764Z,97008.44
2023-04-03T11:18:00.189Z,97006.00
2023-04-03T11:20:34.365Z,97006.23
2023-04-03T11:23:30.251Z,97004.93
2023-04-03T11:26:02.292Z,96993.81
2023-04-03T11:28:30.986Z,97004.05
2023-04-03T11:31:07.567Z,96995.09
2023-04-03T11:34:06.898Z,96988.36
2023-04-03T11:36:45.373Z,96983.39
2023-04-03T11:39:36.345Z,96985.09
2023-04-03T11:42:28.478Z,96982.03
2023-04-03T11:45:28.005Z,96979.83
2023-04-03T11:48:25.116Z,96975.73
2023-04-03T11:50:51.706Z,96967.54
2023-04-03T11:53:28.039Z,96968.37
2023-04-03T11:56:02.669Z,96964.96
2023-04-03T11:58:39.513Z,96965.26
2023-04-03T12:01:12.625Z,96967.84
2023-04-03T12:03:52.362Z,96960.41
2023-04-03T12:06:34.936Z,96963.31
2023-04-03T12:09:03.647Z,96961.66
2023-04-03T12:11:33.196Z,96955.66
2023-04-03T12:14:05.452Z,96956.73
2023-04-03T12:16:44.544Z,96963.52
2023-04-03T12:19:26.525Z,96959.30
2023-04-03T12:22:01.193Z,96957.11
2023-04-03T12:24:32.795Z,96958.88
2023-04-03T12:27:12.158Z,96954.23
2023-04-03T12:30:01.890Z,96959.41
2023-04-03T12:33:11.932Z,96949.07
2023-04-03T12:35:38.431Z,96949.42
2023-04-03T12:38:25.830Z,96943.84
2023-04-03T12:41:21.833Z,96945.55
2023-04-03T12:44:19.254Z,96947.20
2023-04-03T12:46:51.716Z,96952.49
2023-04-03T12:49:31.864Z,96949.44
2023-04-03T12:52:00.382Z,96938.80
2023-04-03T12:54:38.309Z,96936.00
2023-04-03T12:57:23.646Z,96934.50
2023-04-03T12:59:52.077Z,96921.16
2023-04-03T13:02:34.322Z,96928.41
2023-04-03T13:05:13.761Z,96928.82
2023-04-03T13:07:44.043Z,96923.91
2023-04-03T13:10:16.527Z,96917.72
2023-04-03T13:12:57.494Z,96907.52
2023-04-03T13:15:33.419Z,96911.30
2023-04-03T13:18:11.133Z,96907.20
2023-04-03T13:20:42.491Z,96906.89
2023-04-03T13:23:13.767Z,96906.05
2023-04-03T13:25:45.034Z,96903.16
2023-04-03T13:28:17.940Z,96903.66
2023-04-03T13:31:03.442Z,96903.52
2023-04-03T13:33:37.212Z,96899.29
2023-04-03T13:36:13.303Z,96888.84
2023-04-03T13:38:41.329Z,96894.80
2023-04-03T13:41:39.915Z,96888.93
2023-04-03T13:44:25.701Z,96880.75
2023-04-03T13:47:01.957Z,96885.36
2023-04-03T13:49:38.920Z,96892.67
2023-04-03T13:52:36.288Z,96893.34
2023-04-03T13:55:30.998Z,96890.36
2023-04-03T13:58:04.027Z,96888.98
2023-04-03T14:00:39.780Z,96893.39
2023-04-03T14:03:34.484Z,96891.55
2023-04-03T14:06:02.359Z,96886.80
2023-04-03T14:08:42.145Z,96890.41
2023-04-03T14:11:00.919Z,96890.62
2023-04-03T14:13:32.484Z,96888.00
2023-04-03T14:16:15.730Z,96886.88
2023-04-03T14:18:32.346Z,96886.73
2023-04-03T14:21:00.398Z,96894.91
2023-04-03T14:23:28.116Z,96892.52
2023-04-03T14:25:56.476Z,96896.98
2023-04-03T14:28:24.393Z,96896.33
2023-04-03T14:30:52.438Z,96897.60
2023-04-03T14:33:25.959Z,96901.11
2023-04-03T14:35:55.698Z,96903.81
2023-04-03T14:38:31.126Z,96909.13
2023-04-03T14:41:09.765Z,96912.95
2023-04-03T14:43:29.500Z,96903.29
2023-04-03T14:45:57.542Z,96906.64
2023-04-03T14:48:27.999Z,96905.78
2023-04-03T14:51:05.342Z,96904.59
2023-04-03T14:53:37.812Z,96914.81
2023-04-03T14:55:56.405Z,96914.66
2023-04-03T14:58:24.150Z,96910.45
2023-04-03T15:00:51.886Z,96907.44
2023-04-03T15:03:23.906Z,96903.54
2023-04-03T15:05:52.022Z,96902.61
2023-04-03T15:08:26.922Z,96906.28
2023-04-03T15:10:56.147Z,96903.09
2023-04-03T15:13:26.330Z,96903.97
2023-04-03T15:15:54.424Z,96903.38
2023-04-03T15:18:30.481Z,96908.53
2023-04-03T15:20:58.207Z,96916.22
2023-04-03T15:23:27.026Z,96911.69
2023-04-03T15:25:55.865Z,96917.27
2023-04-03T15:28:39.153Z,96919.98
2023-04-03T15:31:07.644Z,96924.65
2023-04-03T15:33:36.390Z,96921.52
2023-04-03T15:36:07.595Z,96918.61
2023-04-03T15:38:39.140Z,96916.17
2023-04-03T15:41:07.355Z,96921.55
2023-04-03T15:43:37.042Z,96925.03
2023-04-03T15:46:04.871Z,96925.95
2023-04-03T15:48:34.845Z,96922.02
2023-04-03T15:51:07.262Z,96919.15
2023-04-03T15:57:11.238Z,96906.92
2023-04-03T15:59:57.314Z,96905.13
2023-04-03T16:02:27.714Z,96910.58
2023-04-03T16:04:56.540Z,96906.20
2023-04-03T16:07:24.405Z,96906.19
2023-04-03T16:09:53.026Z,96903.95
2023-04-03T16:12:20.960Z,96904.27
2023-04-03T16:14:50.774Z,96907.27
2023-04-03T16:17:18.989Z,96901.41
2023-04-03T16:19:47.335Z,96897.69
2023-04-03T16:22:15.435Z,96900.91
2023-04-03T16:24:43.148Z,96903.44
2023-04-03T16:27:10.925Z,96908.09
2023-04-03T16:29:38.668Z,96913.45
2023-04-03T16:32:06.533Z,96923.15
2023-04-03T16:34:34.680Z,96927.70
2023-04-03T16:37:02.810Z,96926.75
2023-04-03T16:39:30.693Z,96930.90
2023-04-03T16:41:58.828Z,96925.14
2023-04-03T16:44:26.869Z,96931.97
2023-04-03T16:46:55.050Z,96939.33
2023-04-03T16:49:22.919Z,96942.52
2023-04-03T16:51:50.695Z,96944.94
2023-04-03T16:54:18.600Z,96951.37
2023-04-03T16:56:47.030Z,96945.50
2023-04-03T16:59:15.152Z,96949.47
2023-04-03T17:01:43.056Z,96955.25
2023-04-03T17:04:10.897Z,96957.66
2023-04-03T17:06:38.958Z,96976.50
2023-04-03T17:09:07.954Z,96974.98
2023-04-03T17:11:38.766Z,96979.65
2023-04-03T17:14:06.754Z,96979.17
2023-04-03T17:16:37.238Z,96986.28
2023-04-03T17:19:05.543Z,96988.73
2023-04-03T17:21:34.541Z,97000.96
2023-04-03T17:24:08.292Z,96992.24
2023-04-03T17:26:37.091Z,96986.26
2023-04-03T17:29:05.204Z,96985.78
2023-04-03T17:31:35.830Z,96988.23
2023-04-03T17:34:04.519Z,96989.91
2023-04-03T17:36:35.114Z,96987.86
2023-04-03T17:39:03.602Z,96989.35
2023-04-03T17:41:32.048Z,96990.47
2023-04-03T17:44:00.278Z,96989.20
2023-04-03T17:46:29.686Z,96990.95
2023-04-03T17:49:00.005Z,96987.89
2023-04-03T17:51:28.370Z,96988.86
2023-04-03T17:53:56.424Z,96980.41
2023-04-03T17:56:29.220Z,96981.15
2023-04-03T17:58:58.173Z,96983.97
2023-04-03T18:01:34.160Z,96981.21
2023-04-03T18:04:05.310Z,96986.74
2023-04-03T18:06:43.868Z,96987.37
2023-04-03T18:09:19.564Z,96999.33
2023-04-03T18:11:49.269Z,96997.38
2023-04-03T18:14:21.480Z,96998.72
2023-04-03T18:16:49.939Z,97001.40
2023-04-03T18:19:23.530Z,97006.75
2023-04-03T18:21:48.346Z,97009.43
2023-04-03T18:24:19.151Z,97004.38
2023-04-03T18:26:52.041Z,97000.91
2023-04-03T18:29:21.143Z,97003.91
2023-04-03T18:31:55.956Z,97002.65
2023-04-03T18:34:24.821Z,97000.45
2023-04-03T18:36:53.644Z,96999.41
2023-04-03T18:39:23.360Z,96987.37
2023-04-03T18:41:54.073Z,96990.05
2023-04-03T18:44:25.463Z,96977.84
2023-04-03T18:46:56.119Z,96977.91
2023-04-03T18:49:24.284Z,96979.35
2023-04-03T18:51:54.364Z,96976.19
2023-04-03T18:54:22.687Z,96977.92
2023-04-03T18:56:50.778Z,96976.91
2023-04-03T18:59:25.483Z,96981.55
2023-04-03T19:01:55.307Z,96988.31
2023-04-03T19:04:23.892Z,96989.71
2023-04-03T19:06:52.859Z,96983.34
2023-04-03T19:09:21.374Z,96983.91
2023-04-03T19:11:49.176Z,96984.98
2023-04-03T19:14:17.314Z,96979.17
2023-04-03T19:16:45.900Z,96982.63
2023-04-03T19:19:15.963Z,96981.30
2023-04-03T19:21:44.074Z,96977.22
2023-04-03T19:24:14.061Z,96983.02
2023-04-03T19:26:42.703Z,96978.39
2023-04-03T19:29:11.251Z,96977.53
2023-04-03T19:31:39.649Z,96975.58
2023-04-03T19:34:07.973Z,96972.02
2023-04-03T19:36:38.940Z,96973.52
2023-04-03T19:39:07.192Z,96966.53
2023-04-03T19:41:37.127Z,96964.30
2023-04-03T19:44:07.020Z,96966.03
2023-04-03T19:46:36.348Z,96967.36
2023-04-03T19:49:04.613Z,96972.88
2023-04-03T19:51:32.626Z,96980.28
2023-04-03T19:54:00.410Z,96974.63
2023-04-03T19:56:28.262Z,96975.19
2023-04-03T19:58:56.404Z,96972.73
2023-04-03T20:01:27.212Z,96971.39
2023-04-03T20:03:56.025Z,96974.30
2023-04-03T20:06:24.097Z,96976.75
2023-04-03T20:08:53.136Z,96971.95
2023-04-03T20:11:23.358Z,96976.19
2023-04-03T20:13:52.558Z,96971.33
2023-04-03T20:16:23.689Z,96970.44
2023-04-03T20:18:55.938Z,96973.38
2023-04-03T20:21:29.660Z,96973.60
2023-04-03T20:23:58.655Z,96975.95
2023-04-03T20:26:29.345Z,96978.88
2023-04-03T20:28:59.974Z,96976.99
2023-04-03T20:31:32.270Z,96972.72
2023-04-03T20:34:01.147Z,96974.61
2023-04-03T20:36:30.373Z,96973.53
2023-04-03T20:38:58.294Z,96984.47
2023-04-03T20:41:26.464Z,96975.33
2023-04-03T20:43:54.325Z,96973.42
2023-04-03T20:46:24.441Z,96977.77
2023-04-03T20:48:53.548Z,96979.89
2023-04-03T20:51:21.319Z,96979.67
2023-04-03T20:53:49.470Z,96986.98
2023-04-03T20:56:17.264Z,96987.06
2023-04-03T20:58:45.763Z,96984.45
2023-04-03T21:01:23.292Z,96988.57
2023-04-03T21:04:01.972Z,96987.59
2023-04-03T21:07:27.555Z,96987.70
2023-04-03T21:10:51.698Z,96988.95
2023-04-03T21:14:17.433Z,96981.88
2023-04-03T21:16:46.425Z,96979.81
2023-04-03T21:19:15.427Z,96985.23
2023-04-03T21:21:45.462Z,96978.62
2023-04-03T21:24:16.622Z,96977.83
2023-04-03T21:26:44.650Z,96975.23
2023-04-03T21:29:13.610Z,96977.52
2023-04-03T21:31:59.599Z,96972.06
2023-04-03T21:34:31.957Z,96965.22
2023-04-03T21:37:08.950Z,96957.12
2023-04-03T21:39:36.790Z,96961.92
2023-04-03T21:42:04.634Z,96956.34
2023-04-03T21:44:32.359Z,96953.67
2023-04-03T21:47:00.685Z,96953.67
2023-04-03T21:49:29.119Z,96942.71
2023-04-03T21:51:56.913Z,96947.83
2023-04-03T21:54:25.196Z,96941.77
2023-04-03T21:56:53.045Z,96940.66
2023-04-03T21:59:20.955Z,96932.73
2023-04-03T22:01:48.814Z,96931.39
2023-04-03T22:04:16.680Z,96928.30
2023-04-03T22:06:45.214Z,96933.19
2023-04-03T22:09:12.998Z,96932.54
2023-04-03T22:11:42.529Z,96939.78
2023-04-03T22:14:10.626Z,96940.88
2023-04-03T22:16:39.927Z,96940.17
2023-04-03T22:19:07.707Z,96939.38
2023-04-03T22:21:35.973Z,96938.34
2023-04-03T22:24:03.836Z,96935.20
2023-04-03T22:26:31.583Z,96942.19
2023-04-03T22:28:58.938Z,96945.97
2023-04-03T22:31:27.671Z,96937.95
2023-04-03T22:33:55.561Z,96949.58
2023-04-03T22:36:23.178Z,96946.48
2023-04-03T22:38:51.182Z,96945.53
2023-04-03T22:41:18.768Z,96941.36
2023-04-03T22:43:46.677Z,96937.11
2023-04-03T22:46:14.629Z,96933.55
2023-04-03T22:48:42.930Z,96941.70
2023-04-03T22:51:11.767Z,96936.83
2023-04-03T22:53:39.692Z,96936.56
2023-04-03T22:56:08.440Z,96934.21
2023-04-03T22:58:37.025Z,96930.27
2023-04-03T23:01:13.448Z,96937.00
2023-04-03T23:03:42.201Z,96938.66
2023-04-03T23:06:10.629Z,96927.80
2023-04-03T23:08:40.085Z,96930.92
2023-04-03T23:11:08.831Z,96936.09
2023-04-03T23:13:36.825Z,96939.08
2023-04-03T23:16:05.206Z,96947.75
2023-04-03T23:18:33.101Z,96933.01
2023-04-03T23:21:02.981Z,96932.34
2023-04-03T23:23:31.408Z,96926.09
2023-04-03T23:26:01.704Z,96921.50
2023-04-03T23:28:30.806Z,96908.64
2023-04-03T23:31:02.399Z,96912.00
2023-04-03T23:33:33.595Z,96899.87
2023-04-03T23:36:08.003Z,96896.29
2023-04-03T23:38:36.391Z,96892.89
2023-04-03T23:41:04.097Z,96891.37
2023-04-03T23:43:31.974Z,96896.22
2023-04-03T23:45:59.769Z,96900.22
2023-04-03T23:48:27.383Z,96892.03
2023-04-03T23:50:55.094Z,96900.30
2023-04-03T23:53:22.673Z,96896.59
2023-04-03T23:55:50.467Z,96897.19
2023-04-03T23:58:18.169Z,96893.50
